.
WxDataArchive / Data Records for 2010-09-08
2010-09-07 September 2010 2010-09-09

Data Records for Wednesday, 08 September 2010

Time	Temp	Chill	HIndex	Humid	Dewpt	 Wind 	HiWind	WindDir	Rain 	Barom 
-----	----	-----	------	-----	-----	------	------	-------	-----	----- 
00:00	67.8	67.8	67.8	47	46.8	2	6	270	0.00	29.966 
00:05	67.6	67.6	67.6	48	47.2	1	3	270	0.00	29.966 
00:10	67.4	67.4	67.4	48	47.0	2	4	270	0.00	29.966 
00:15	67.3	67.3	67.3	47	46.4	1	3	270	0.00	29.967 
00:20	67.3	67.3	67.3	46	45.8	3	6	270	0.00	29.967 
00:25	67.3	67.3	67.3	46	45.8	2	4	270	0.00	29.967 
00:30	67.1	67.1	67.1	46	45.6	2	5	270	0.00	29.966 
00:35	67.1	67.1	67.1	46	45.6	2	5	270	0.00	29.966 
00:40	66.9	66.9	66.9	46	45.4	2	5	270	0.00	29.966 
00:45	66.9	66.9	66.9	46	45.4	3	5	270	0.00	29.967 
00:50	66.6	66.6	66.6	46	45.2	2	6	248	0.00	29.967 
00:55	66.4	66.4	66.4	47	45.5	2	5	270	0.00	29.967 
01:00	66.1	66.1	66.1	48	45.8	2	5	270	0.00	29.968 
01:05	66.0	66.0	66.0	49	46.3	2	5	338	0.00	29.968 
01:10	65.8	65.8	65.8	50	46.6	1	5	270	0.00	29.968 
01:15	65.5	65.5	65.5	50	46.4	1	4	270	0.00	29.967 
01:20	65.2	65.2	65.2	51	46.6	1	4	292	0.00	29.967 
01:25	64.8	64.8	64.8	53	47.3	1	4	315	0.00	29.967 
01:30	64.7	64.7	64.7	54	47.7	1	3	270	0.00	29.968 
01:35	64.3	64.3	64.3	54	47.3	0	1	270	0.00	29.968 
01:40	64.0	64.0	64.0	55	47.5	0	2	270	0.00	29.968 
01:45	63.7	63.7	63.7	56	47.7	0	1	270	0.00	29.969 
01:50	63.2	63.2	63.2	57	47.7	0	1	270	0.00	29.969 
01:55	62.9	62.9	62.9	58	47.9	0	0	---	0.00	29.969 
02:00	62.6	62.6	62.6	58	47.6	0	1	270	0.00	29.972 
02:05	62.4	62.4	62.4	59	47.9	0	0	---	0.00	29.972 
02:10	62.1	62.1	62.1	60	48.0	0	0	---	0.00	29.972 
02:15	61.6	61.6	61.6	62	48.4	0	2	270	0.00	29.974 
02:20	61.3	61.3	61.3	64	49.0	0	1	270	0.00	29.974 
02:25	61.2	61.2	61.2	65	49.3	0	1	270	0.00	29.974 
02:30	61.3	61.3	61.3	66	49.8	1	4	270	0.00	29.972 
02:35	61.3	61.3	61.3	66	49.8	1	3	270	0.00	29.972 
02:40	61.3	61.3	61.3	66	49.8	1	2	270	0.00	29.972 
02:45	61.2	61.2	61.2	67	50.2	0	2	270	0.00	29.974 
02:50	61.0	61.0	61.0	67	50.0	0	3	270	0.00	29.974 
02:55	61.0	61.0	61.0	68	50.4	0	2	270	0.00	29.974 
03:00	60.9	60.9	60.9	68	50.3	0	2	270	0.00	29.975 
03:05	60.9	60.9	60.9	68	50.3	0	2	270	0.00	29.975 
03:10	60.7	60.7	60.7	68	50.1	0	2	270	0.00	29.975 
03:15	60.5	60.5	60.5	69	50.3	0	2	270	0.00	29.979 
03:20	60.4	60.4	60.4	69	50.2	0	1	270	0.00	29.979 
03:25	60.2	60.2	60.2	70	50.4	0	1	270	0.00	29.979 
03:30	60.1	60.1	60.1	70	50.3	0	1	270	0.00	29.983 
03:35	59.9	59.9	59.9	71	50.5	0	1	270	0.00	29.983 
03:40	59.6	59.6	59.6	71	50.2	0	1	270	0.00	29.983 
03:45	59.6	59.6	59.6	71	50.2	0	1	270	0.00	29.984 
03:50	59.5	59.5	59.5	72	50.5	0	1	270	0.00	29.984 
03:55	59.5	59.5	59.5	72	50.5	0	1	270	0.00	29.984 
04:00	59.3	59.3	59.3	72	50.3	0	1	270	0.00	29.991 
04:05	59.2	59.2	59.2	73	50.5	0	1	270	0.00	29.991 
04:10	59.0	59.0	59.0	73	50.4	0	2	270	0.00	29.991 
04:15	59.0	59.0	59.0	73	50.4	0	1	270	0.00	29.995 
04:20	58.9	58.9	58.9	73	50.3	0	1	270	0.00	29.995 
04:25	58.9	58.9	58.9	74	50.6	0	2	270	0.00	29.995 
04:30	58.9	58.9	58.9	74	50.6	0	1	270	0.00	30.001 
04:35	58.9	58.9	58.9	74	50.6	0	3	270	0.00	30.001 
04:40	58.7	58.7	58.7	74	50.4	0	2	270	0.00	30.001 
04:45	58.7	58.7	58.7	74	50.4	0	1	270	0.00	30.002 
04:50	58.6	58.6	58.6	75	50.7	0	2	270	0.00	30.002 
04:55	58.3	58.3	58.3	75	50.4	0	0	---	0.00	30.002 
05:00	58.0	58.0	58.0	76	50.5	0	1	270	0.00	30.004 
05:05	57.8	57.8	57.8	76	50.3	0	1	270	0.00	30.004 
05:10	57.5	57.5	57.5	77	50.3	0	1	270	0.00	30.004 
05:15	57.3	57.3	57.3	77	50.1	0	1	270	0.00	30.006 
05:20	57.3	57.3	57.3	77	50.1	0	1	270	0.00	30.006 
05:25	57.2	57.2	57.2	77	50.1	0	1	270	0.00	30.006 
05:30	57.0	57.0	57.0	77	49.9	0	1	270	0.00	30.018 
05:35	56.9	56.9	56.9	77	49.8	0	0	---	0.00	30.018 
05:40	56.7	56.7	56.7	77	49.6	0	0	---	0.00	30.018 
05:45	56.7	56.7	56.7	77	49.6	0	1	270	0.00	30.020 
05:50	56.6	56.6	56.6	77	49.5	0	1	270	0.00	30.020 
05:55	56.6	56.6	56.6	77	49.5	0	1	270	0.00	30.020 
06:00	56.6	56.6	56.6	77	49.5	0	2	270	0.00	30.022 
06:05	56.5	56.5	56.5	77	49.4	0	1	270	0.00	30.022 
06:10	56.5	56.5	56.5	77	49.4	0	1	270	0.00	30.022 
06:15	56.3	56.3	56.3	77	49.2	0	1	270	0.00	30.029 
06:20	56.3	56.3	56.3	77	49.2	0	1	270	0.00	30.029 
06:25	56.2	56.2	56.2	77	49.1	0	1	270	0.00	30.029 
06:30	56.0	56.0	56.0	77	48.9	0	1	270	0.00	30.032 
06:35	56.0	56.0	56.0	78	49.2	0	1	270	0.00	30.032 
06:40	55.9	55.9	55.9	78	49.1	0	1	270	0.00	30.032 
06:45	55.7	55.7	55.7	78	48.9	0	1	270	0.00	30.036 
06:50	55.6	55.6	55.6	78	48.8	0	0	---	0.00	30.036 
06:55	55.4	55.4	55.4	78	48.7	0	0	---	0.00	30.036 
07:00	55.3	55.3	55.3	79	48.9	0	1	270	0.00	30.039 
07:05	55.3	55.3	55.3	79	48.9	0	1	270	0.00	30.039 
07:10	55.1	55.1	55.1	79	48.7	0	1	270	0.00	30.039 
07:15	55.1	55.1	55.1	79	48.7	0	1	270	0.00	30.044 
07:20	55.1	55.1	55.1	79	48.7	0	1	270	0.00	30.044 
07:25	55.1	55.1	55.1	79	48.7	0	0	---	0.00	30.044 
07:30	55.0	55.0	55.0	79	48.6	0	1	270	0.00	30.052 
07:35	55.0	55.0	55.0	80	48.9	0	1	270	0.00	30.052 
07:40	55.0	55.0	55.0	80	48.9	0	1	270	0.00	30.052 
07:45	55.0	55.0	55.0	80	48.9	0	1	270	0.00	30.054 
07:50	55.0	55.0	55.0	80	48.9	0	1	270	0.00	30.054 
07:55	55.1	55.1	55.1	80	49.0	0	1	270	0.00	30.054 
08:00	55.4	55.4	55.4	79	49.0	0	1	270	0.00	30.057 
08:05	55.6	55.6	55.6	79	49.2	0	1	270	0.00	30.057 
08:10	55.9	55.9	55.9	78	49.1	0	2	270	0.00	30.057 
08:15	56.3	56.3	56.3	77	49.2	0	2	270	0.00	30.060 
08:20	56.7	56.7	56.7	76	49.2	0	3	270	0.00	30.060 
08:25	57.0	57.0	57.0	75	49.2	1	2	270	0.00	30.060 
08:30	57.2	57.2	57.2	74	49.0	1	3	270	0.00	30.060 
08:35	57.5	57.5	57.5	74	49.3	0	2	270	0.00	30.060 
08:40	57.6	57.6	57.6	73	49.0	1	3	270	0.00	30.060 
08:45	58.0	58.0	58.0	73	49.4	1	4	270	0.00	30.060 
08:50	58.1	58.1	58.1	72	49.1	1	3	270	0.00	30.060 
08:55	58.4	58.4	58.4	71	49.0	1	3	270	0.00	30.060 
09:00	58.6	58.6	58.6	71	49.2	1	4	270	0.00	30.068 
09:05	58.9	58.9	58.9	70	49.1	1	4	270	0.00	30.068 
09:10	59.2	59.2	59.2	69	49.0	2	5	270	0.00	30.068 
09:15	59.3	59.3	59.3	69	49.1	2	4	270	0.00	30.067 
09:20	59.6	59.6	59.6	69	49.4	1	3	270	0.00	30.067 
09:25	59.8	59.8	59.8	68	49.2	2	4	292	0.00	30.067 
09:30	59.9	59.9	59.9	66	48.5	2	6	270	0.00	30.069 
09:35	60.2	60.2	60.2	67	49.2	1	3	315	0.00	30.069 
09:40	60.5	60.5	60.5	66	49.1	1	4	270	0.00	30.069 
09:45	60.9	60.9	60.9	65	49.1	2	5	270	0.00	30.065 
09:50	61.0	61.0	61.0	64	48.7	1	4	270	0.00	30.065 
09:55	61.3	61.3	61.3	62	48.2	3	5	270	0.00	30.065 
10:00	61.6	61.6	61.6	61	48.0	2	6	270	0.00	30.063 
10:05	62.1	62.1	62.1	61	48.5	2	6	292	0.00	30.063 
10:10	62.3	62.3	62.3	59	47.8	2	5	270	0.00	30.063 
10:15	62.3	62.3	62.3	58	47.3	2	6	270	0.00	30.070 
10:20	62.7	62.7	62.7	57	47.2	3	6	270	0.00	30.070 
10:25	62.7	62.7	62.7	57	47.2	4	10	270	0.00	30.070 
10:30	62.9	62.9	62.9	58	47.9	2	6	270	0.00	30.071 
10:35	63.1	63.1	63.1	58	48.1	3	6	270	0.00	30.071 
10:40	63.1	63.1	63.1	56	47.1	4	9	270	0.00	30.071 
10:45	63.2	63.2	63.2	56	47.2	3	6	270	0.00	30.073 
10:50	63.2	63.2	63.2	55	46.8	4	7	270	0.00	30.073 
10:55	62.9	62.9	62.9	56	47.0	4	7	270	0.00	30.073 
11:00	62.7	62.7	62.7	56	46.8	2	7	270	0.00	30.074 
11:05	63.2	63.2	63.2	55	46.8	4	9	270	0.00	30.074 
11:10	63.7	63.7	63.7	54	46.7	3	8	270	0.00	30.074 
11:15	64.2	64.2	64.2	55	47.7	3	6	270	0.00	30.074 
11:20	64.3	64.3	64.3	54	47.3	3	10	270	0.00	30.074 
11:25	64.2	64.2	64.2	54	47.2	2	5	315	0.00	30.074 
11:30	64.7	64.7	64.7	54	47.7	2	6	292	0.00	30.075 
11:35	65.2	65.2	65.2	53	47.6	2	5	270	0.00	30.075 
11:40	66.1	66.1	66.1	52	48.0	1	5	248	0.00	30.075 
11:45	65.8	65.8	65.8	51	47.2	3	6	270	0.00	30.075 
11:50	65.5	65.5	65.5	50	46.4	3	7	270	0.00	30.075 
11:55	66.1	66.1	66.1	53	48.5	1	5	292	0.00	30.075 
12:00	66.0	66.0	66.0	51	47.3	2	6	292	0.00	30.073 
12:05	65.6	65.6	65.6	52	47.5	3	6	292	0.00	30.073 
12:10	65.6	65.6	65.6	53	48.0	2	5	315	0.00	30.073 
12:15	65.6	65.6	65.6	51	47.0	2	5	315	0.00	30.075 
12:20	66.0	66.0	66.0	51	47.3	3	7	315	0.00	30.075 
12:25	66.6	66.6	66.6	51	47.9	2	4	270	0.00	30.075 
12:30	67.1	67.1	67.1	50	47.8	3	6	270	0.00	30.075 
12:35	67.1	67.1	67.1	49	47.3	2	5	338	0.00	30.075 
12:40	67.3	67.3	67.3	49	47.5	2	4	270	0.00	30.075 
12:45	66.9	66.9	66.9	49	47.1	3	7	270	0.00	30.073 
12:50	67.3	67.3	67.3	49	47.5	2	6	270	0.00	30.073 
12:55	67.4	67.4	67.4	49	47.6	2	7	315	0.00	30.073 
13:00	68.1	68.1	68.1	50	48.7	2	5	315	0.00	30.067 
13:05	68.4	68.4	68.4	47	47.4	3	7	270	0.00	30.067 
13:10	67.9	67.9	67.9	48	47.5	2	6	315	0.00	30.067 
13:15	68.4	68.4	68.4	48	47.9	2	5	270	0.00	30.064 
13:20	69.1	69.1	69.1	47	48.0	2	5	270	0.00	30.064 
13:25	69.1	69.1	69.1	46	47.4	2	6	270	0.00	30.064 
13:30	68.4	68.4	68.4	46	46.8	3	5	292	0.00	30.060 
13:35	68.6	68.6	68.6	47	47.6	2	4	292	0.00	30.060 
13:40	68.8	68.8	68.8	46	47.2	3	5	315	0.00	30.060 
13:45	68.6	68.6	68.6	47	47.6	3	7	270	0.00	30.057 
13:50	68.4	68.4	68.4	48	47.9	2	5	270	0.00	30.057 
13:55	69.3	69.3	69.3	47	48.2	2	5	292	0.00	30.057 
14:00	69.6	69.6	69.6	46	47.9	2	4	292	0.00	30.055 
14:05	69.6	69.6	69.6	46	47.9	3	6	292	0.00	30.055 
14:10	69.3	69.3	69.3	47	48.2	3	6	315	0.00	30.055 
14:15	69.3	69.3	69.3	47	48.2	2	4	270	0.00	30.052 
14:20	69.1	69.1	69.1	46	47.4	2	5	270	0.00	30.052 
14:25	69.4	69.4	69.4	45	47.1	2	4	315	0.00	30.052 
14:30	69.4	69.4	69.4	47	48.3	2	5	270	0.00	30.048 
14:35	69.6	69.6	69.6	44	46.7	3	5	292	0.00	30.048 
14:40	69.6	69.6	69.6	45	47.3	3	6	292	0.00	30.048 
14:45	69.6	69.6	69.6	45	47.3	3	6	270	0.00	30.047 
14:50	69.9	69.9	69.9	45	47.6	4	7	270	0.00	30.047 
14:55	69.9	69.9	69.9	45	47.6	3	7	270	0.00	30.047 
15:00	70.3	70.3	70.3	45	47.9	2	6	270	0.00	30.043 
15:05	70.3	70.3	70.3	44	47.3	3	7	270	0.00	30.043 
15:10	70.3	70.3	70.3	45	47.9	2	7	292	0.00	30.043 
15:15	70.3	70.3	70.3	44	47.3	3	6	270	0.00	30.043 
15:20	70.3	70.3	70.3	44	47.3	3	6	270	0.00	30.043 
15:25	70.4	70.4	70.4	43	46.8	3	7	292	0.00	30.043 
15:30	70.6	70.6	70.6	44	47.6	2	6	292	0.00	30.036 
15:35	70.6	70.6	70.6	43	47.0	3	6	270	0.00	30.036 
15:40	70.3	70.3	70.3	43	46.7	3	6	315	0.00	30.036 
15:45	70.3	70.3	70.3	43	46.7	1	6	315	0.00	30.036 
15:50	70.6	70.6	70.6	44	47.6	2	4	270	0.00	30.036 
15:55	70.6	70.6	70.6	43	47.0	3	6	270	0.00	30.036 
16:00	70.4	70.4	70.4	43	46.8	3	6	270	0.00	30.033 
16:05	70.4	70.4	70.4	43	46.8	3	7	270	0.00	30.033 
16:10	70.6	70.6	70.6	43	47.0	3	7	270	0.00	30.033 
16:15	70.8	70.8	70.8	42	46.6	2	4	315	0.00	30.033 
16:20	70.9	70.9	70.9	44	47.9	2	5	292	0.00	30.033 
16:25	71.1	71.1	71.1	43	47.5	2	5	270	0.00	30.033 
16:30	70.8	70.8	70.8	43	47.2	1	4	292	0.00	30.030 
16:35	70.8	70.8	70.8	43	47.2	3	7	292	0.00	30.030 
16:40	70.3	70.3	70.3	44	47.3	3	6	270	0.00	30.030 
16:45	70.4	70.4	70.4	42	46.2	3	7	270	0.00	30.032 
16:50	70.4	70.4	70.4	44	47.4	2	4	270	0.00	30.032 
16:55	70.6	70.6	70.6	45	48.2	2	6	270	0.00	30.032 
17:00	70.4	70.4	70.4	43	46.8	3	7	270	0.00	30.032 
17:05	69.9	69.9	69.9	44	47.0	1	4	315	0.00	30.032 
17:10	70.1	70.1	70.1	44	47.2	1	3	315	0.00	30.032 
17:15	70.3	70.3	70.3	44	47.3	2	4	270	0.00	30.037 
17:20	70.6	70.6	70.6	42	46.4	2	5	270	0.00	30.037 
17:25	70.3	70.3	70.3	41	45.5	2	5	270	0.00	30.037 
17:30	70.4	70.4	70.4	42	46.2	2	4	270	0.00	30.036 
17:35	70.3	70.3	70.3	43	46.7	2	6	270	0.00	30.036 
17:40	70.1	70.1	70.1	43	46.6	1	4	292	0.00	30.036 
17:45	69.9	69.9	69.9	42	45.8	2	4	270	0.00	30.045 
17:50	69.4	69.4	69.4	43	45.9	2	4	270	0.00	30.045 
17:55	69.1	69.1	69.1	42	45.0	2	4	338	0.00	30.045 
18:00	69.1	69.1	69.1	43	45.7	1	5	338	0.00	30.047 
18:05	69.3	69.3	69.3	43	45.8	2	4	315	0.00	30.047 
18:10	69.3	69.3	69.3	44	46.4	1	5	270	0.00	30.047 
18:15	69.1	69.1	69.1	43	45.7	2	6	292	0.00	30.049 
18:20	69.1	69.1	69.1	43	45.7	1	5	292	0.00	30.049 
18:25	68.8	68.8	68.8	43	45.4	2	7	315	0.00	30.049 
18:30	68.4	68.4	68.4	43	45.0	3	5	292	0.00	30.051 
18:35	68.1	68.1	68.1	44	45.4	2	5	292	0.00	30.051 
18:40	67.9	67.9	67.9	44	45.2	2	6	315	0.00	30.051 
18:45	67.8	67.8	67.8	45	45.7	2	5	315	0.00	30.054 
18:50	67.6	67.6	67.6	46	46.1	1	3	315	0.00	30.054 
18:55	67.4	67.4	67.4	47	46.5	1	4	315	0.00	30.054 
19:00	67.3	67.3	67.3	48	46.9	1	3	315	0.00	30.057 
19:05	66.8	66.8	66.8	50	47.6	1	3	315	0.00	30.057 
19:10	66.4	66.4	66.4	51	47.7	1	4	315	0.00	30.057 
19:15	66.1	66.1	66.1	52	48.0	0	2	315	0.00	30.062 
19:20	65.6	65.6	65.6	53	48.0	1	3	315	0.00	30.062 
19:25	65.3	65.3	65.3	53	47.7	1	4	315	0.00	30.062 
19:30	65.0	65.0	65.0	53	47.4	1	4	315	0.00	30.066 
19:35	64.8	64.8	64.8	54	47.8	0	2	315	0.00	30.066 
19:40	64.3	64.3	64.3	56	48.3	0	1	315	0.00	30.066 
19:45	64.0	64.0	64.0	56	48.0	0	2	315	0.00	30.069 
19:50	63.7	63.7	63.7	57	48.2	0	3	315	0.00	30.069 
19:55	63.2	63.2	63.2	57	47.7	1	4	292	0.00	30.069 
20:00	62.7	62.7	62.7	58	47.7	1	4	292	0.00	30.076 
20:05	62.4	62.4	62.4	59	47.9	0	1	292	0.00	30.076 
20:10	62.0	62.0	62.0	59	47.5	0	2	292	0.00	30.076 
20:15	61.5	61.5	61.5	60	47.5	0	1	292	0.00	30.073 
20:20	61.2	61.2	61.2	61	47.6	0	1	292	0.00	30.073 
20:25	60.9	60.9	60.9	62	47.8	0	1	292	0.00	30.073 
20:30	60.5	60.5	60.5	62	47.4	0	0	---	0.00	30.081 
20:35	60.2	60.2	60.2	63	47.6	0	0	---	0.00	30.081 
20:40	59.9	59.9	59.9	63	47.3	0	1	292	0.00	30.081 
20:45	59.8	59.8	59.8	64	47.6	0	0	---	0.00	30.084 
20:50	59.5	59.5	59.5	64	47.3	0	0	---	0.00	30.084 
20:55	59.2	59.2	59.2	65	47.4	0	0	---	0.00	30.084 
21:00	59.0	59.0	59.0	65	47.2	0	0	---	0.00	30.086 
21:05	58.9	58.9	58.9	65	47.2	0	0	---	0.00	30.086 
21:10	58.6	58.6	58.6	66	47.3	0	0	---	0.00	30.086 
21:15	58.4	58.4	58.4	66	47.1	0	0	---	0.00	30.086 
21:20	58.3	58.3	58.3	66	47.0	0	0	---	0.00	30.086 
21:25	58.0	58.0	58.0	67	47.1	0	0	---	0.00	30.086 
21:30	57.8	57.8	57.8	67	46.9	0	0	---	0.00	30.092 
21:35	57.6	57.6	57.6	68	47.1	0	0	---	0.00	30.092 
21:40	57.5	57.5	57.5	68	47.0	0	0	---	0.00	30.092 
21:45	57.3	57.3	57.3	68	46.8	0	0	---	0.00	30.094 
21:50	57.2	57.2	57.2	69	47.1	0	0	---	0.00	30.094 
21:55	56.9	56.9	56.9	69	46.8	0	0	---	0.00	30.094 
22:00	56.9	56.9	56.9	69	46.8	0	0	---	0.00	30.096 
22:05	56.7	56.7	56.7	69	46.6	0	0	---	0.00	30.096 
22:10	56.6	56.6	56.6	70	46.9	0	0	---	0.00	30.096 
22:15	56.5	56.5	56.5	70	46.8	0	0	---	0.00	30.092 
22:20	56.2	56.2	56.2	71	46.9	0	0	---	0.00	30.092 
22:25	56.0	56.0	56.0	72	47.1	0	0	---	0.00	30.092 
22:30	55.9	55.9	55.9	72	47.0	0	0	---	0.00	30.095 
22:35	55.7	55.7	55.7	73	47.2	0	0	---	0.00	30.095 
22:40	55.4	55.4	55.4	73	46.9	0	0	---	0.00	30.095 
22:45	55.3	55.3	55.3	73	46.8	0	0	---	0.00	30.098 
22:50	55.3	55.3	55.3	74	47.2	0	0	---	0.00	30.098 
22:55	55.1	55.1	55.1	74	47.0	0	0	---	0.00	30.098 
23:00	55.1	55.1	55.1	74	47.0	0	0	---	0.00	30.100 
23:05	55.0	55.0	55.0	75	47.2	0	0	---	0.00	30.100 
23:10	54.8	54.8	54.8	75	47.0	0	0	---	0.00	30.100 
23:15	54.7	54.7	54.7	75	46.9	0	0	---	0.00	30.102 
23:20	54.5	54.5	54.5	75	46.7	0	0	---	0.00	30.102 
23:25	54.4	54.4	54.4	76	47.0	0	0	---	0.00	30.102 
23:30	54.2	54.2	54.2	76	46.8	0	0	---	0.00	30.101 
23:35	54.1	54.1	54.1	77	47.0	0	0	---	0.00	30.101 
23:40	53.8	53.8	53.8	77	46.8	0	0	---	0.00	30.101 
23:45	53.6	53.6	53.6	78	46.9	0	0	---	0.00	30.105 
23:50	53.3	53.3	53.3	78	46.6	0	0	---	0.00	30.105 
23:55	53.2	53.2	53.2	78	46.5	0	0	---	0.00	30.105 

CoCoRaHS
IN-AL-39
A2 Web Hosting
Creative Commons License
GoDaddy
search engine by freefind advanced

loaded 2018-11-18 11:15:34 • last modified 2010-11-18 10:43:29
Privacy PolicyDisclaimer
• wx.awcolley.com is powered by PmWiki v.2002016 •
• all content (unless otherwise noted) © 2018 A W Colley